sensor_id;sensor_type;location;lat;lon;timestamp;temperature;humidity
71254;HTU21D;59019;47.638;18.966;2023-12-20T00:01:46;-0.91;101.19
71254;HTU21D;59019;47.638;18.966;2023-12-20T00:04:12;-0.90;101.14
71254;HTU21D;59019;47.638;18.966;2023-12-20T00:06:37;-0.90;101.62
71254;HTU21D;59019;47.638;18.966;2023-12-20T00:09:02;-0.89;102.15
71254;HTU21D;59019;47.638;18.966;2023-12-20T00:11:28;-0.86;102.02
71254;HTU21D;59019;47.638;18.966;2023-12-20T00:13:56;-0.86;102.34
71254;HTU21D;59019;47.638;18.966;2023-12-20T00:16:25;-0.90;101.78
71254;HTU21D;59019;47.638;18.966;2023-12-20T00:18:50;-0.96;101.67
71254;HTU21D;59019;47.638;18.966;2023-12-20T00:21:15;-1.02;101.51
71254;HTU21D;59019;47.638;18.966;2023-12-20T00:23:41;-1.01;102.67
71254;HTU21D;59019;47.638;18.966;2023-12-20T00:26:06;-0.94;103.38
71254;HTU21D;59019;47.638;18.966;2023-12-20T00:28:32;-0.89;103.29
71254;HTU21D;59019;47.638;18.966;2023-12-20T00:30:57;-0.94;102.18
71254;HTU21D;59019;47.638;18.966;2023-12-20T00:33:23;-0.96;102.33
71254;HTU21D;59019;47.638;18.966;2023-12-20T00:35:48;-0.96;102.09
71254;HTU21D;59019;47.638;18.966;2023-12-20T00:38:14;-1.01;101.46
71254;HTU21D;59019;47.638;18.966;2023-12-20T00:40:40;-1.09;101.19
71254;HTU21D;59019;47.638;18.966;2023-12-20T00:43:05;-1.12;101.12
71254;HTU21D;59019;47.638;18.966;2023-12-20T00:45:30;-1.14;101.75
71254;HTU21D;59019;47.638;18.966;2023-12-20T00:47:56;-1.09;101.86
71254;HTU21D;59019;47.638;18.966;2023-12-20T00:50:21;-1.09;101.74
71254;HTU21D;59019;47.638;18.966;2023-12-20T00:52:50;-1.04;102.07
71254;HTU21D;59019;47.638;18.966;2023-12-20T00:55:15;-0.98;101.86
71254;HTU21D;59019;47.638;18.966;2023-12-20T00:57:40;-0.99;101.73
71254;HTU21D;59019;47.638;18.966;2023-12-20T01:00:06;-0.94;101.43
71254;HTU21D;59019;47.638;18.966;2023-12-20T01:02:32;-0.96;100.61
71254;HTU21D;59019;47.638;18.966;2023-12-20T01:04:57;-1.02;100.88
71254;HTU21D;59019;47.638;18.966;2023-12-20T01:07:22;-0.99;101.25
71254;HTU21D;59019;47.638;18.966;2023-12-20T01:09:48;-0.94;101.26
71254;HTU21D;59019;47.638;18.966;2023-12-20T01:12:13;-0.94;102.05
71254;HTU21D;59019;47.638;18.966;2023-12-20T01:14:39;-0.85;102.98
71254;HTU21D;59019;47.638;18.966;2023-12-20T01:17:05;-0.80;103.91
71254;HTU21D;59019;47.638;18.966;2023-12-20T01:19:30;-0.72;104.98
71254;HTU21D;59019;47.638;18.966;2023-12-20T01:21:55;-0.70;105.43
71254;HTU21D;59019;47.638;18.966;2023-12-20T01:24:21;-0.66;105.64
71254;HTU21D;59019;47.638;18.966;2023-12-20T01:26:46;-0.69;104.21
71254;HTU21D;59019;47.638;18.966;2023-12-20T01:29:12;-0.75;103.38
71254;HTU21D;59019;47.638;18.966;2023-12-20T01:31:39;-0.75;103.07
71254;HTU21D;59019;47.638;18.966;2023-12-20T01:34:05;-0.70;103.03
71254;HTU21D;59019;47.638;18.966;2023-12-20T01:36:31;-0.77;102.36
71254;HTU21D;59019;47.638;18.966;2023-12-20T01:38:56;-0.81;102.38
71254;HTU21D;59019;47.638;18.966;2023-12-20T01:41:21;-0.88;101.70
71254;HTU21D;59019;47.638;18.966;2023-12-20T01:43:47;-1.04;101.47
71254;HTU21D;59019;47.638;18.966;2023-12-20T01:46:12;-1.02;102.15
71254;HTU21D;59019;47.638;18.966;2023-12-20T01:48:38;-0.98;102.36
71254;HTU21D;59019;47.638;18.966;2023-12-20T01:51:04;-0.99;102.50
71254;HTU21D;59019;47.638;18.966;2023-12-20T01:53:29;-1.03;102.18
71254;HTU21D;59019;47.638;18.966;2023-12-20T01:55:56;-1.00;102.63
71254;HTU21D;59019;47.638;18.966;2023-12-20T01:58:23;-0.97;102.58
71254;HTU21D;59019;47.638;18.966;2023-12-20T02:00:49;-0.97;102.86
71254;HTU21D;59019;47.638;18.966;2023-12-20T02:03:14;-0.90;103.05
71254;HTU21D;59019;47.638;18.966;2023-12-20T02:05:41;-0.86;102.51
71254;HTU21D;59019;47.638;18.966;2023-12-20T02:08:06;-0.96;101.44
71254;HTU21D;59019;47.638;18.966;2023-12-20T02:10:32;-1.03;101.28
71254;HTU21D;59019;47.638;18.966;2023-12-20T02:12:58;-1.04;101.63
71254;HTU21D;59019;47.638;18.966;2023-12-20T02:15:23;-1.10;102.67
71254;HTU21D;59019;47.638;18.966;2023-12-20T02:17:49;-1.05;105.06
71254;HTU21D;59019;47.638;18.966;2023-12-20T02:20:15;-0.97;105.44
71254;HTU21D;59019;47.638;18.966;2023-12-20T02:22:40;-0.93;105.90
71254;HTU21D;59019;47.638;18.966;2023-12-20T02:25:06;-0.86;105.85
71254;HTU21D;59019;47.638;18.966;2023-12-20T02:27:32;-0.80;104.21
71254;HTU21D;59019;47.638;18.966;2023-12-20T02:29:57;-0.87;102.74
71254;HTU21D;59019;47.638;18.966;2023-12-20T02:32:42;-0.93;102.02
71254;HTU21D;59019;47.638;18.966;2023-12-20T02:35:27;-0.91;102.28
71254;HTU21D;59019;47.638;18.966;2023-12-20T02:38:13;-0.93;101.81
71254;HTU21D;59019;47.638;18.966;2023-12-20T02:40:59;-0.90;101.10
71254;HTU21D;59019;47.638;18.966;2023-12-20T02:43:45;-0.96;101.08
71254;HTU21D;59019;47.638;18.966;2023-12-20T02:46:30;-0.95;101.19
71254;HTU21D;59019;47.638;18.966;2023-12-20T02:49:16;-0.97;101.05
71254;HTU21D;59019;47.638;18.966;2023-12-20T02:52:02;-0.97;101.25
71254;HTU21D;59019;47.638;18.966;2023-12-20T02:54:48;-1.03;101.15
71254;HTU21D;59019;47.638;18.966;2023-12-20T02:57:34;-1.02;100.92
71254;HTU21D;59019;47.638;18.966;2023-12-20T03:00:21;-1.05;100.48
71254;HTU21D;59019;47.638;18.966;2023-12-20T03:03:07;-1.15;99.94
71254;HTU21D;59019;47.638;18.966;2023-12-20T03:05:53;-1.30;100.41
71254;HTU21D;59019;47.638;18.966;2023-12-20T03:08:39;-1.29;100.78
71254;HTU21D;59019;47.638;18.966;2023-12-20T03:11:27;-1.32;101.10
71254;HTU21D;59019;47.638;18.966;2023-12-20T03:14:13;-1.44;101.26
71254;HTU21D;59019;47.638;18.966;2023-12-20T03:16:59;-1.40;101.59
71254;HTU21D;59019;47.638;18.966;2023-12-20T03:19:44;-1.44;101.54
71254;HTU21D;59019;47.638;18.966;2023-12-20T03:22:30;-1.42;101.98
71254;HTU21D;59019;47.638;18.966;2023-12-20T03:25:16;-1.32;103.34
71254;HTU21D;59019;47.638;18.966;2023-12-20T03:28:01;-1.25;104.45
71254;HTU21D;59019;47.638;18.966;2023-12-20T03:30:47;-1.17;105.81
71254;HTU21D;59019;47.638;18.966;2023-12-20T03:33:33;-1.13;106.45
71254;HTU21D;59019;47.638;18.966;2023-12-20T03:36:19;-1.05;106.17
71254;HTU21D;59019;47.638;18.966;2023-12-20T03:39:05;-1.09;104.71
71254;HTU21D;59019;47.638;18.966;2023-12-20T03:41:51;-1.05;104.24
71254;HTU21D;59019;47.638;18.966;2023-12-20T03:44:39;-1.15;102.76
71254;HTU21D;59019;47.638;18.966;2023-12-20T03:47:25;-1.15;102.63
71254;HTU21D;59019;47.638;18.966;2023-12-20T03:50:11;-1.13;102.28
71254;HTU21D;59019;47.638;18.966;2023-12-20T03:52:57;-1.14;101.65
71254;HTU21D;59019;47.638;18.966;2023-12-20T03:55:42;-1.14;101.71
71254;HTU21D;59019;47.638;18.966;2023-12-20T03:58:28;-1.14;101.62
71254;HTU21D;59019;47.638;18.966;2023-12-20T04:01:14;-1.16;101.80
71254;HTU21D;59019;47.638;18.966;2023-12-20T04:04:00;-1.12;101.74
71254;HTU21D;59019;47.638;18.966;2023-12-20T04:06:45;-1.15;101.82
71254;HTU21D;59019;47.638;18.966;2023-12-20T04:09:31;-1.28;101.44
71254;HTU21D;59019;47.638;18.966;2023-12-20T04:12:17;-1.24;102.15
71254;HTU21D;59019;47.638;18.966;2023-12-20T04:15:03;-1.14;102.76
71254;HTU21D;59019;47.638;18.966;2023-12-20T04:17:54;-1.19;102.60
71254;HTU21D;59019;47.638;18.966;2023-12-20T04:20:40;-1.18;102.61
71254;HTU21D;59019;47.638;18.966;2023-12-20T04:23:25;-1.11;102.89
71254;HTU21D;59019;47.638;18.966;2023-12-20T04:26:11;-1.05;102.96
71254;HTU21D;59019;47.638;18.966;2023-12-20T04:28:57;-1.02;103.07
71254;HTU21D;59019;47.638;18.966;2023-12-20T04:31:43;-0.97;102.76
71254;HTU21D;59019;47.638;18.966;2023-12-20T04:34:29;-1.00;102.39
71254;HTU21D;59019;47.638;18.966;2023-12-20T04:37:14;-1.03;103.31
71254;HTU21D;59019;47.638;18.966;2023-12-20T04:40:00;-1.03;104.32
71254;HTU21D;59019;47.638;18.966;2023-12-20T04:42:46;-0.98;105.21
71254;HTU21D;59019;47.638;18.966;2023-12-20T04:45:31;-0.90;106.66
71254;HTU21D;59019;47.638;18.966;2023-12-20T04:48:17;-0.94;106.08
71254;HTU21D;59019;47.638;18.966;2023-12-20T04:51:03;-1.08;104.47
71254;HTU21D;59019;47.638;18.966;2023-12-20T04:53:49;-1.05;104.66
71254;HTU21D;59019;47.638;18.966;2023-12-20T04:56:34;-1.02;103.79
71254;HTU21D;59019;47.638;18.966;2023-12-20T04:59:20;-1.04;102.89
71254;HTU21D;59019;47.638;18.966;2023-12-20T05:02:06;-1.03;103.45
71254;HTU21D;59019;47.638;18.966;2023-12-20T05:04:52;-0.93;104.05
71254;HTU21D;59019;47.638;18.966;2023-12-20T05:07:37;-0.95;103.60
71254;HTU21D;59019;47.638;18.966;2023-12-20T05:10:23;-0.97;103.89
71254;HTU21D;59019;47.638;18.966;2023-12-20T05:13:09;-0.98;103.26
71254;HTU21D;59019;47.638;18.966;2023-12-20T05:15:54;-1.00;102.82
71254;HTU21D;59019;47.638;18.966;2023-12-20T05:18:40;-1.03;103.57
71254;HTU21D;59019;47.638;18.966;2023-12-20T05:21:26;-1.04;103.08
71254;HTU21D;59019;47.638;18.966;2023-12-20T05:24:12;-1.05;103.37
71254;HTU21D;59019;47.638;18.966;2023-12-20T05:26:57;-1.21;102.38
71254;HTU21D;59019;47.638;18.966;2023-12-20T05:29:43;-1.30;101.69
71254;HTU21D;59019;47.638;18.966;2023-12-20T05:32:29;-1.42;101.23
71254;HTU21D;59019;47.638;18.966;2023-12-20T05:35:15;-1.48;101.19
71254;HTU21D;59019;47.638;18.966;2023-12-20T05:38:01;-1.54;101.40
71254;HTU21D;59019;47.638;18.966;2023-12-20T05:40:46;-1.55;101.62
71254;HTU21D;59019;47.638;18.966;2023-12-20T05:43:32;-1.63;101.25
71254;HTU21D;59019;47.638;18.966;2023-12-20T05:46:18;-1.64;101.66
71254;HTU21D;59019;47.638;18.966;2023-12-20T05:49:04;-1.65;101.68
71254;HTU21D;59019;47.638;18.966;2023-12-20T05:51:50;-1.69;101.40
71254;HTU21D;59019;47.638;18.966;2023-12-20T05:54:36;-1.78;101.43
71254;HTU21D;59019;47.638;18.966;2023-12-20T05:57:22;-1.87;100.99
71254;HTU21D;59019;47.638;18.966;2023-12-20T06:00:09;-1.99;100.82
71254;HTU21D;59019;47.638;18.966;2023-12-20T06:02:55;-1.95;101.43
71254;HTU21D;59019;47.638;18.966;2023-12-20T06:05:41;-1.93;102.31
71254;HTU21D;59019;47.638;18.966;2023-12-20T06:08:26;-1.84;102.61
71254;HTU21D;59019;47.638;18.966;2023-12-20T06:11:12;-1.79;102.33
71254;HTU21D;59019;47.638;18.966;2023-12-20T06:13:59;-1.75;102.45
71254;HTU21D;59019;47.638;18.966;2023-12-20T06:16:45;-1.73;101.68
71254;HTU21D;59019;47.638;18.966;2023-12-20T06:19:31;-1.70;101.70
71254;HTU21D;59019;47.638;18.966;2023-12-20T06:22:17;-1.68;101.69
71254;HTU21D;59019;47.638;18.966;2023-12-20T06:25:03;-1.64;101.49
71254;HTU21D;59019;47.638;18.966;2023-12-20T06:27:48;-1.69;101.03
71254;HTU21D;59019;47.638;18.966;2023-12-20T06:30:34;-1.76;102.73
71254;HTU21D;59019;47.638;18.966;2023-12-20T06:33:20;-1.93;102.03
71254;HTU21D;59019;47.638;18.966;2023-12-20T06:36:07;-1.92;102.60
71254;HTU21D;59019;47.638;18.966;2023-12-20T06:38:53;-1.89;103.13
71254;HTU21D;59019;47.638;18.966;2023-12-20T06:41:39;-1.90;103.41
71254;HTU21D;59019;47.638;18.966;2023-12-20T06:44:25;-1.85;102.89
71254;HTU21D;59019;47.638;18.966;2023-12-20T06:47:11;-1.88;102.31
71254;HTU21D;59019;47.638;18.966;2023-12-20T06:49:57;-1.87;101.79
71254;HTU21D;59019;47.638;18.966;2023-12-20T06:52:42;-1.93;101.51
71254;HTU21D;59019;47.638;18.966;2023-12-20T06:55:28;-2.00;101.21
71254;HTU21D;59019;47.638;18.966;2023-12-20T06:58:15;-1.99;101.48
71254;HTU21D;59019;47.638;18.966;2023-12-20T07:01:00;-1.99;101.74
71254;HTU21D;59019;47.638;18.966;2023-12-20T07:03:46;-1.93;102.27
71254;HTU21D;59019;47.638;18.966;2023-12-20T07:06:32;-1.90;101.96
71254;HTU21D;59019;47.638;18.966;2023-12-20T07:09:18;-1.90;102.23
71254;HTU21D;59019;47.638;18.966;2023-12-20T07:12:04;-1.88;102.13
71254;HTU21D;59019;47.638;18.966;2023-12-20T07:14:49;-1.86;102.90
71254;HTU21D;59019;47.638;18.966;2023-12-20T07:17:37;-1.67;103.91
71254;HTU21D;59019;47.638;18.966;2023-12-20T07:20:26;-1.56;103.09
71254;HTU21D;59019;47.638;18.966;2023-12-20T07:23:12;-1.57;102.89
71254;HTU21D;59019;47.638;18.966;2023-12-20T07:25:58;-1.50;102.54
71254;HTU21D;59019;47.638;18.966;2023-12-20T07:28:43;-1.52;101.83
71254;HTU21D;59019;47.638;18.966;2023-12-20T07:31:29;-1.47;101.21
71254;HTU21D;59019;47.638;18.966;2023-12-20T07:34:16;-1.47;100.90
71254;HTU21D;59019;47.638;18.966;2023-12-20T07:37:02;-1.46;100.51
71254;HTU21D;59019;47.638;18.966;2023-12-20T07:39:47;-1.40;100.20
71254;HTU21D;59019;47.638;18.966;2023-12-20T07:42:33;-1.35;99.46
71254;HTU21D;59019;47.638;18.966;2023-12-20T07:45:19;-1.30;99.20
71254;HTU21D;59019;47.638;18.966;2023-12-20T07:48:06;-1.27;99.35
71254;HTU21D;59019;47.638;18.966;2023-12-20T07:50:52;-1.27;99.10
71254;HTU21D;59019;47.638;18.966;2023-12-20T07:53:39;-1.32;99.26
71254;HTU21D;59019;47.638;18.966;2023-12-20T07:56:25;-1.34;99.42
71254;HTU21D;59019;47.638;18.966;2023-12-20T07:59:10;-1.45;99.10
71254;HTU21D;59019;47.638;18.966;2023-12-20T08:01:56;-1.38;99.55
71254;HTU21D;59019;47.638;18.966;2023-12-20T08:04:42;-1.40;99.42
71254;HTU21D;59019;47.638;18.966;2023-12-20T08:07:29;-1.40;99.61
71254;HTU21D;59019;47.638;18.966;2023-12-20T08:10:14;-1.31;99.96
71254;HTU21D;59019;47.638;18.966;2023-12-20T08:13:00;-1.24;99.92
71254;HTU21D;59019;47.638;18.966;2023-12-20T08:15:46;-1.11;99.96
71254;HTU21D;59019;47.638;18.966;2023-12-20T08:18:32;-1.00;99.92
71254;HTU21D;59019;47.638;18.966;2023-12-20T08:21:17;-0.94;99.51
71254;HTU21D;59019;47.638;18.966;2023-12-20T08:24:06;-0.84;98.59
71254;HTU21D;59019;47.638;18.966;2023-12-20T08:26:51;-0.88;98.16
71254;HTU21D;59019;47.638;18.966;2023-12-20T08:29:38;-0.89;97.90
71254;HTU21D;59019;47.638;18.966;2023-12-20T08:32:26;-0.83;98.53
71254;HTU21D;59019;47.638;18.966;2023-12-20T08:35:12;-0.77;98.79
71254;HTU21D;59019;47.638;18.966;2023-12-20T08:37:58;-0.73;99.65
71254;HTU21D;59019;47.638;18.966;2023-12-20T08:40:44;-0.59;100.51
71254;HTU21D;59019;47.638;18.966;2023-12-20T08:43:30;-0.47;101.01
71254;HTU21D;59019;47.638;18.966;2023-12-20T08:46:15;-0.32;101.29
71254;HTU21D;59019;47.638;18.966;2023-12-20T08:49:02;-0.25;100.36
71254;HTU21D;59019;47.638;18.966;2023-12-20T08:51:48;-0.16;99.99
71254;HTU21D;59019;47.638;18.966;2023-12-20T08:54:33;-0.16;99.47
71254;HTU21D;59019;47.638;18.966;2023-12-20T08:57:20;-0.20;99.54
71254;HTU21D;59019;47.638;18.966;2023-12-20T09:00:07;-0.27;99.19
71254;HTU21D;59019;47.638;18.966;2023-12-20T09:02:54;-0.31;98.71
71254;HTU21D;59019;47.638;18.966;2023-12-20T09:05:40;-0.29;99.19
71254;HTU21D;59019;47.638;18.966;2023-12-20T09:08:26;-0.26;98.89
71254;HTU21D;59019;47.638;18.966;2023-12-20T09:11:11;-0.08;99.47
71254;HTU21D;59019;47.638;18.966;2023-12-20T09:13:57;0.04;98.97
71254;HTU21D;59019;47.638;18.966;2023-12-20T09:16:43;0.06;99.42
71254;HTU21D;59019;47.638;18.966;2023-12-20T09:19:29;0.10;99.57
71254;HTU21D;59019;47.638;18.966;2023-12-20T09:22:15;0.09;99.25
71254;HTU21D;59019;47.638;18.966;2023-12-20T09:25:01;0.06;99.63
71254;HTU21D;59019;47.638;18.966;2023-12-20T09:27:50;0.02;99.37
71254;HTU21D;59019;47.638;18.966;2023-12-20T09:30:35;0.08;98.92
71254;HTU21D;59019;47.638;18.966;2023-12-20T09:33:25;-0.02;99.14
71254;HTU21D;59019;47.638;18.966;2023-12-20T09:36:03;-0.02;99.87
71254;HTU21D;59019;47.638;18.966;2023-12-20T09:38:28;0.02;100.16
71254;HTU21D;59019;47.638;18.966;2023-12-20T09:40:53;-0.41;101.37
71254;HTU21D;59019;47.638;18.966;2023-12-20T09:43:20;-0.31;101.98
71254;HTU21D;59019;47.638;18.966;2023-12-20T09:45:48;-0.15;102.16
71254;HTU21D;59019;47.638;18.966;2023-12-20T09:48:17;-0.03;101.96
71254;HTU21D;59019;47.638;18.966;2023-12-20T09:50:43;-0.02;101.98
71254;HTU21D;59019;47.638;18.966;2023-12-20T09:53:12;-0.03;102.99
71254;HTU21D;59019;47.638;18.966;2023-12-20T09:55:41;0.06;103.70
71254;HTU21D;59019;47.638;18.966;2023-12-20T09:58:06;0.14;104.06
71254;HTU21D;59019;47.638;18.966;2023-12-20T10:00:36;0.30;104.51
71254;HTU21D;59019;47.638;18.966;2023-12-20T10:03:02;0.37;105.93
71254;HTU21D;59019;47.638;18.966;2023-12-20T10:05:32;0.54;107.18
71254;HTU21D;59019;47.638;18.966;2023-12-20T10:07:59;0.68;107.35
71254;HTU21D;59019;47.638;18.966;2023-12-20T10:10:25;0.86;106.70
71254;HTU21D;59019;47.638;18.966;2023-12-20T10:13:09;1.01;106.95
71254;HTU21D;59019;47.638;18.966;2023-12-20T10:15:36;1.26;107.15
71254;HTU21D;59019;47.638;18.966;2023-12-20T10:18:02;1.39;107.30
71254;HTU21D;59019;47.638;18.966;2023-12-20T10:20:29;1.55;107.62
71254;HTU21D;59019;47.638;18.966;2023-12-20T10:22:56;1.73;107.55
71254;HTU21D;59019;47.638;18.966;2023-12-20T10:25:21;1.83;105.88
71254;HTU21D;59019;47.638;18.966;2023-12-20T10:27:47;1.97;106.30
71254;HTU21D;59019;47.638;18.966;2023-12-20T10:30:13;2.16;106.41
71254;HTU21D;59019;47.638;18.966;2023-12-20T10:32:39;2.31;106.24
71254;HTU21D;59019;47.638;18.966;2023-12-20T10:35:06;2.46;104.31
71254;HTU21D;59019;47.638;18.966;2023-12-20T10:37:35;2.39;102.69
71254;HTU21D;59019;47.638;18.966;2023-12-20T10:40:03;2.53;103.83
71254;HTU21D;59019;47.638;18.966;2023-12-20T10:42:29;2.58;103.44
71254;HTU21D;59019;47.638;18.966;2023-12-20T10:44:56;2.74;104.62
71254;HTU21D;59019;47.638;18.966;2023-12-20T10:47:22;2.90;104.89
71254;HTU21D;59019;47.638;18.966;2023-12-20T10:49:48;3.06;103.49
71254;HTU21D;59019;47.638;18.966;2023-12-20T10:52:14;3.19;102.09
71254;HTU21D;59019;47.638;18.966;2023-12-20T10:54:42;3.29;101.86
71254;HTU21D;59019;47.638;18.966;2023-12-20T10:57:07;3.46;101.00
71254;HTU21D;59019;47.638;18.966;2023-12-20T10:59:34;3.65;100.64
71254;HTU21D;59019;47.638;18.966;2023-12-20T11:02:03;3.72;99.98
71254;HTU21D;59019;47.638;18.966;2023-12-20T11:04:52;4.01;101.19
71254;HTU21D;59019;47.638;18.966;2023-12-20T11:07:35;4.37;103.04
71254;HTU21D;59019;47.638;18.966;2023-12-20T11:10:35;4.87;101.12
71254;HTU21D;59019;47.638;18.966;2023-12-20T11:13:10;5.17;100.35
71254;HTU21D;59019;47.638;18.966;2023-12-20T11:15:37;5.52;99.19
71254;HTU21D;59019;47.638;18.966;2023-12-20T11:18:03;5.74;98.34
71254;HTU21D;59019;47.638;18.966;2023-12-20T11:20:40;5.91;95.34
71254;HTU21D;59019;47.638;18.966;2023-12-20T11:23:06;5.95;94.55
71254;HTU21D;59019;47.638;18.966;2023-12-20T11:25:53;6.20;93.59
71254;HTU21D;59019;47.638;18.966;2023-12-20T11:28:23;6.42;92.37
71254;HTU21D;59019;47.638;18.966;2023-12-20T11:30:54;6.28;92.84
71254;HTU21D;59019;47.638;18.966;2023-12-20T11:33:26;6.39;91.83
71254;HTU21D;59019;47.638;18.966;2023-12-20T11:35:52;6.34;92.37
71254;HTU21D;59019;47.638;18.966;2023-12-20T11:38:20;6.27;92.25
71254;HTU21D;59019;47.638;18.966;2023-12-20T11:40:48;6.40;91.90
71254;HTU21D;59019;47.638;18.966;2023-12-20T11:43:32;6.50;91.95
71254;HTU21D;59019;47.638;18.966;2023-12-20T11:46:06;6.85;93.60
71254;HTU21D;59019;47.638;18.966;2023-12-20T11:48:34;6.94;91.77
71254;HTU21D;59019;47.638;18.966;2023-12-20T11:51:00;6.70;91.59
71254;HTU21D;59019;47.638;18.966;2023-12-20T11:53:26;6.84;92.11
71254;HTU21D;59019;47.638;18.966;2023-12-20T11:55:51;6.74;92.12
71254;HTU21D;59019;47.638;18.966;2023-12-20T11:58:17;6.85;91.61
71254;HTU21D;59019;47.638;18.966;2023-12-20T12:00:42;6.64;92.32
71254;HTU21D;59019;47.638;18.966;2023-12-20T12:03:09;6.71;92.15
71254;HTU21D;59019;47.638;18.966;2023-12-20T12:05:34;6.60;92.59
71254;HTU21D;59019;47.638;18.966;2023-12-20T12:08:01;6.43;93.10
71254;HTU21D;59019;47.638;18.966;2023-12-20T12:10:26;6.12;93.07
71254;HTU21D;59019;47.638;18.966;2023-12-20T12:12:52;6.01;94.40
71254;HTU21D;59019;47.638;18.966;2023-12-20T12:15:17;6.06;94.16
71254;HTU21D;59019;47.638;18.966;2023-12-20T12:17:42;5.95;94.04
71254;HTU21D;59019;47.638;18.966;2023-12-20T12:20:08;6.05;94.68
71254;HTU21D;59019;47.638;18.966;2023-12-20T12:22:35;5.95;94.12
71254;HTU21D;59019;47.638;18.966;2023-12-20T12:25:12;5.78;95.02
71254;HTU21D;59019;47.638;18.966;2023-12-20T12:27:40;5.75;95.03
71254;HTU21D;59019;47.638;18.966;2023-12-20T12:30:06;5.79;95.12
71254;HTU21D;59019;47.638;18.966;2023-12-20T12:32:32;5.83;94.57
71254;HTU21D;59019;47.638;18.966;2023-12-20T12:35:03;5.83;94.44
71254;HTU21D;59019;47.638;18.966;2023-12-20T12:37:28;5.69;93.85
71254;HTU21D;59019;47.638;18.966;2023-12-20T12:39:54;5.55;94.50
71254;HTU21D;59019;47.638;18.966;2023-12-20T12:42:20;5.35;94.85
71254;HTU21D;59019;47.638;18.966;2023-12-20T12:44:46;5.27;95.37
71254;HTU21D;59019;47.638;18.966;2023-12-20T12:47:12;5.22;95.85
71254;HTU21D;59019;47.638;18.966;2023-12-20T12:49:40;5.15;95.82
71254;HTU21D;59019;47.638;18.966;2023-12-20T12:52:05;5.13;96.63
71254;HTU21D;59019;47.638;18.966;2023-12-20T12:54:31;5.11;96.80
71254;HTU21D;59019;47.638;18.966;2023-12-20T12:56:56;5.25;96.82
71254;HTU21D;59019;47.638;18.966;2023-12-20T12:59:24;5.08;97.20
71254;HTU21D;59019;47.638;18.966;2023-12-20T13:01:50;5.20;96.52
71254;HTU21D;59019;47.638;18.966;2023-12-20T13:04:15;5.11;96.07
71254;HTU21D;59019;47.638;18.966;2023-12-20T13:06:41;5.11;96.32
71254;HTU21D;59019;47.638;18.966;2023-12-20T13:09:07;5.13;96.78
71254;HTU21D;59019;47.638;18.966;2023-12-20T13:11:34;4.98;96.97
71254;HTU21D;59019;47.638;18.966;2023-12-20T13:14:00;5.03;96.66
71254;HTU21D;59019;47.638;18.966;2023-12-20T13:16:41;4.90;96.78
71254;HTU21D;59019;47.638;18.966;2023-12-20T13:19:13;4.82;97.13
71254;HTU21D;59019;47.638;18.966;2023-12-20T13:21:39;4.87;96.95
71254;HTU21D;59019;47.638;18.966;2023-12-20T13:24:08;4.54;97.41
71254;HTU21D;59019;47.638;18.966;2023-12-20T13:26:33;4.50;98.04
71254;HTU21D;59019;47.638;18.966;2023-12-20T13:29:01;4.33;98.36
71254;HTU21D;59019;47.638;18.966;2023-12-20T13:31:30;4.35;98.63
71254;HTU21D;59019;47.638;18.966;2023-12-20T13:34:04;4.36;98.77
71254;HTU21D;59019;47.638;18.966;2023-12-20T13:36:33;4.38;99.93
71254;HTU21D;59019;47.638;18.966;2023-12-20T13:38:58;4.42;99.30
71254;HTU21D;59019;47.638;18.966;2023-12-20T13:41:24;4.54;99.56
71254;HTU21D;59019;47.638;18.966;2023-12-20T13:43:52;4.58;99.87
71254;HTU21D;59019;47.638;18.966;2023-12-20T13:46:20;4.37;99.48
71254;HTU21D;59019;47.638;18.966;2023-12-20T13:48:48;4.32;99.84
71254;HTU21D;59019;47.638;18.966;2023-12-20T13:51:14;4.23;99.35
71254;HTU21D;59019;47.638;18.966;2023-12-20T13:53:40;4.19;99.82
71254;HTU21D;59019;47.638;18.966;2023-12-20T13:56:15;4.29;99.49
71254;HTU21D;59019;47.638;18.966;2023-12-20T13:58:43;4.27;99.77
71254;HTU21D;59019;47.638;18.966;2023-12-20T14:01:15;4.54;100.79
71254;HTU21D;59019;47.638;18.966;2023-12-20T14:03:40;4.89;100.47
71254;HTU21D;59019;47.638;18.966;2023-12-20T14:06:06;5.03;100.21
71254;HTU21D;59019;47.638;18.966;2023-12-20T14:08:32;5.12;99.46
71254;HTU21D;59019;47.638;18.966;2023-12-20T14:10:57;5.22;99.65
71254;HTU21D;59019;47.638;18.966;2023-12-20T14:13:23;5.37;98.76
71254;HTU21D;59019;47.638;18.966;2023-12-20T14:15:56;5.21;99.03
71254;HTU21D;59019;47.638;18.966;2023-12-20T14:18:21;5.34;98.79
71254;HTU21D;59019;47.638;18.966;2023-12-20T14:20:48;5.31;98.57
71254;HTU21D;59019;47.638;18.966;2023-12-20T14:23:13;5.27;98.41
71254;HTU21D;59019;47.638;18.966;2023-12-20T14:25:41;5.24;98.46
71254;HTU21D;59019;47.638;18.966;2023-12-20T14:28:10;5.11;98.54
71254;HTU21D;59019;47.638;18.966;2023-12-20T14:30:37;5.22;98.31
71254;HTU21D;59019;47.638;18.966;2023-12-20T14:33:04;5.09;98.02
71254;HTU21D;59019;47.638;18.966;2023-12-20T14:35:31;5.21;98.29
71254;HTU21D;59019;47.638;18.966;2023-12-20T14:37:57;5.13;98.20
71254;HTU21D;59019;47.638;18.966;2023-12-20T14:40:26;5.18;98.12
71254;HTU21D;59019;47.638;18.966;2023-12-20T14:42:54;5.36;97.42
71254;HTU21D;59019;47.638;18.966;2023-12-20T14:45:20;5.37;97.40
71254;HTU21D;59019;47.638;18.966;2023-12-20T14:47:46;5.28;97.28
71254;HTU21D;59019;47.638;18.966;2023-12-20T14:50:13;5.07;97.48
71254;HTU21D;59019;47.638;18.966;2023-12-20T14:52:43;5.09;98.23
71254;HTU21D;59019;47.638;18.966;2023-12-20T14:55:11;5.02;97.65
71254;HTU21D;59019;47.638;18.966;2023-12-20T14:57:36;4.93;97.71
71254;HTU21D;59019;47.638;18.966;2023-12-20T15:00:02;4.74;97.73
71254;HTU21D;59019;47.638;18.966;2023-12-20T15:02:27;4.59;97.83
71254;HTU21D;59019;47.638;18.966;2023-12-20T15:04:55;4.47;97.84
71254;HTU21D;59019;47.638;18.966;2023-12-20T15:07:21;4.35;98.63
71254;HTU21D;59019;47.638;18.966;2023-12-20T15:09:46;4.32;99.71
71254;HTU21D;59019;47.638;18.966;2023-12-20T15:12:15;4.50;99.55
71254;HTU21D;59019;47.638;18.966;2023-12-20T15:14:40;4.53;99.53
71254;HTU21D;59019;47.638;18.966;2023-12-20T15:17:09;4.63;99.41
71254;HTU21D;59019;47.638;18.966;2023-12-20T15:19:34;4.75;98.97
71254;HTU21D;59019;47.638;18.966;2023-12-20T15:22:00;4.90;98.87
71254;HTU21D;59019;47.638;18.966;2023-12-20T15:24:25;4.91;98.64
71254;HTU21D;59019;47.638;18.966;2023-12-20T15:27:03;4.78;98.85
71254;HTU21D;59019;47.638;18.966;2023-12-20T15:29:28;4.88;98.55
71254;HTU21D;59019;47.638;18.966;2023-12-20T15:31:56;4.93;98.55
71254;HTU21D;59019;47.638;18.966;2023-12-20T15:34:22;4.83;98.48
71254;HTU21D;59019;47.638;18.966;2023-12-20T15:36:47;4.67;98.19
71254;HTU21D;59019;47.638;18.966;2023-12-20T15:39:13;4.75;98.92
71254;HTU21D;59019;47.638;18.966;2023-12-20T15:41:41;4.76;98.63
71254;HTU21D;59019;47.638;18.966;2023-12-20T15:44:07;4.77;98.67
71254;HTU21D;59019;47.638;18.966;2023-12-20T15:46:34;4.69;99.08
71254;HTU21D;59019;47.638;18.966;2023-12-20T15:49:00;4.73;99.27